Time;durP1;ratioP1;P1;durP2;ratioP2;P2;SDS_P1;SDS_P2;PMS_P1;PMS_P2;Temp;Humidity;BMP_temperature;BMP_pressure;BME280_temperature;BME280_humidity;BME280_pressure;Samples;Min_cycle;Max_cycle;Signal;HPM_P1;HPM_P2
2022/08/07 00:03:59;;;;;;;10.85;6.90;;;;;;;;;;10216389;28;20046;-68
2022/08/07 00:08:59;;;;;;;9.43;6.00;;;;;;;;;;10223293;28;20063;-69
2022/08/07 00:14:12;;;;;;;9.80;5.63;;;;;;;;;;10219074;28;20172;-68
2022/08/07 00:19:14;;;;;;;10.97;6.70;;;;;;;;;;10224425;28;20505;-68
2022/08/07 00:24:17;;;;;;;12.63;7.25;;;;;;;;;;10220006;28;20057;-68
2022/08/07 00:29:14;;;;;;;11.82;6.53;;;;;;;;;;10211059;28;20073;-68
2022/08/07 00:34:11;;;;;;;11.95;6.95;;;;;;;;;;10221546;28;20133;-68
2022/08/07 00:39:07;;;;;;;9.48;5.70;;;;;;;;;;10219461;28;20124;-68
2022/08/07 00:44:11;;;;;;;11.75;6.07;;;;;;;;;;10220098;28;20049;-69
2022/08/07 00:49:10;;;;;;;9.18;6.00;;;;;;;;;;10219493;28;20053;-68
2022/08/07 00:54:20;;;;;;;10.90;6.57;;;;;;;;;;10224653;28;20057;-68
2022/08/07 00:59:17;;;;;;;10.07;6.40;;;;;;;;;;10211713;28;20052;-68
2022/08/07 01:04:31;;;;;;;12.45;6.82;;;;;;;;;;10212519;28;20133;-68
2022/08/07 01:09:31;;;;;;;13.00;6.90;;;;;;;;;;10214632;28;21232;-68
2022/08/07 01:14:47;;;;;;;12.77;6.65;;;;;;;;;;10220355;28;20059;-68
2022/08/07 01:19:54;;;;;;;11.50;5.97;;;;;;;;;;10222127;28;20493;-68
2022/08/07 01:24:51;;;;;;;11.55;7.13;;;;;;;;;;10217001;28;20059;-68
2022/08/07 01:29:48;;;;;;;11.80;7.57;;;;;;;;;;10221900;28;20112;-68
2022/08/07 01:34:45;;;;;;;12.30;6.80;;;;;;;;;;10216494;28;20587;-68
2022/08/07 01:39:45;;;;;;;12.27;8.55;;;;;;;;;;10204199;28;20041;-68
2022/08/07 01:44:42;;;;;;;11.88;7.50;;;;;;;;;;10217499;28;20123;-68
2022/08/07 01:49:43;;;;;;;9.93;7.03;;;;;;;;;;10211574;28;20533;-68
2022/08/07 01:54:40;;;;;;;10.02;6.65;;;;;;;;;;10221703;28;20559;-68
2022/08/07 01:59:40;;;;;;;14.93;8.05;;;;;;;;;;10217181;28;20073;-68
2022/08/07 02:04:39;;;;;;;14.40;9.20;;;;;;;;;;10214083;28;20092;-68
2022/08/07 02:09:53;;;;;;;14.35;9.07;;;;;;;;;;10221069;28;20049;-68
2022/08/07 02:14:55;;;;;;;12.60;8.52;;;;;;;;;;10224530;28;20442;-68
2022/08/07 02:19:52;;;;;;;13.80;9.15;;;;;;;;;;10220528;28;20476;-68
2022/08/07 02:25:06;;;;;;;15.30;9.52;;;;;;;;;;10215499;28;20050;-68
2022/08/07 02:30:12;;;;;;;14.88;9.27;;;;;;;;;;10221445;28;20669;-68
2022/08/07 02:35:10;;;;;;;13.90;9.02;;;;;;;;;;10223151;28;20129;-68
2022/08/07 02:40:07;;;;;;;12.65;8.00;;;;;;;;;;10220708;28;20386;-68
2022/08/07 02:45:25;;;;;;;16.55;9.00;;;;;;;;;;10223157;28;20063;-68
2022/08/07 02:50:43;;;;;;;14.63;9.52;;;;;;;;;;10216013;28;20041;-68
2022/08/07 02:55:43;;;;;;;15.57;8.98;;;;;;;;;;10222586;28;20053;-68
2022/08/07 03:01:00;;;;;;;15.43;8.95;;;;;;;;;;10218359;28;20083;-68
2022/08/07 03:05:59;;;;;;;15.10;9.60;;;;;;;;;;10225585;28;20104;-68
2022/08/07 03:10:56;;;;;;;14.18;8.70;;;;;;;;;;10215392;28;20097;-68
2022/08/07 03:15:53;;;;;;;14.02;8.88;;;;;;;;;;10226936;28;20041;-68
2022/08/07 03:20:54;;;;;;;14.10;8.35;;;;;;;;;;10231587;28;20040;-68
2022/08/07 03:25:50;;;;;;;14.98;8.80;;;;;;;;;;10217489;28;20128;-68
2022/08/07 03:31:17;;;;;;;15.80;9.65;;;;;;;;;;10223680;28;20133;-68
2022/08/07 03:36:13;;;;;;;14.13;8.63;;;;;;;;;;10219354;28;20085;-68
2022/08/07 03:41:11;;;;;;;15.60;8.48;;;;;;;;;;10219548;28;20122;-68
2022/08/07 03:46:11;;;;;;;14.35;8.55;;;;;;;;;;10218485;28;20084;-68
2022/08/07 03:51:14;;;;;;;14.93;8.43;;;;;;;;;;10222360;28;20059;-68
2022/08/07 03:56:20;;;;;;;14.43;8.60;;;;;;;;;;10222288;28;20124;-69
2022/08/07 04:01:28;;;;;;;14.20;8.07;;;;;;;;;;10216984;28;20474;-68
2022/08/07 04:06:27;;;;;;;13.10;7.80;;;;;;;;;;10224915;28;20061;-69
2022/08/07 04:11:34;;;;;;;13.23;8.10;;;;;;;;;;10216913;28;20048;-68
2022/08/07 04:16:50;;;;;;;14.40;8.20;;;;;;;;;;10224315;28;20165;-68
2022/08/07 04:21:54;;;;;;;14.02;8.25;;;;;;;;;;10215833;28;20103;-68
2022/08/07 04:27:01;;;;;;;12.48;7.97;;;;;;;;;;10220237;28;20046;-68
2022/08/07 04:32:00;;;;;;;12.38;7.47;;;;;;;;;;10223282;28;20046;-68
2022/08/07 04:37:05;;;;;;;11.63;7.22;;;;;;;;;;10210712;28;20045;-68
2022/08/07 04:42:15;;;;;;;10.75;7.35;;;;;;;;;;10221572;28;20476;-68
2022/08/07 04:47:16;;;;;;;11.65;7.20;;;;;;;;;;10211892;28;20173;-68
2022/08/07 04:52:37;;;;;;;13.27;7.63;;;;;;;;;;10199553;28;20052;-68
2022/08/07 04:58:06;;;;;;;12.10;7.70;;;;;;;;;;10215330;28;20523;-68
2022/08/07 05:03:34;;;;;;;12.73;7.57;;;;;;;;;;10216180;28;20046;-68
2022/08/07 05:08:50;;;;;;;14.05;8.40;;;;;;;;;;10239336;28;20248;-68
2022/08/07 05:13:59;;;;;;;13.82;8.90;;;;;;;;;;10225793;28;20045;-68
2022/08/07 05:19:18;;;;;;;15.77;9.32;;;;;;;;;;10217320;28;20056;-68
2022/08/07 05:24:22;;;;;;;15.32;8.95;;;;;;;;;;10214558;28;20141;-68
2022/08/07 05:29:26;;;;;;;13.68;8.82;;;;;;;;;;10213084;28;20487;-68
2022/08/07 05:34:43;;;;;;;12.98;8.68;;;;;;;;;;10219798;28;20057;-68
2022/08/07 05:39:39;;;;;;;11.30;7.80;;;;;;;;;;10214775;28;20222;-68
2022/08/07 05:44:57;;;;;;;14.07;7.65;;;;;;;;;;10221470;28;20073;-68
2022/08/07 05:50:10;;;;;;;13.65;8.00;;;;;;;;;;10219617;28;20425;-68
2022/08/07 05:55:07;;;;;;;14.35;9.50;;;;;;;;;;10209712;28;20045;-68
2022/08/07 06:00:07;;;;;;;14.43;8.10;;;;;;;;;;10212327;28;20524;-68
2022/08/07 06:05:12;;;;;;;13.43;8.70;;;;;;;;;;10209150;28;20477;-68
2022/08/07 06:10:11;;;;;;;18.60;8.32;;;;;;;;;;10213514;28;20316;-68
2022/08/07 06:15:12;;;;;;;11.40;7.82;;;;;;;;;;10209168;28;20053;-68
2022/08/07 06:20:11;;;;;;;16.42;7.45;;;;;;;;;;10207981;28;20074;-68
2022/08/07 06:25:27;;;;;;;12.48;7.07;;;;;;;;;;10202495;28;20456;-68
2022/08/07 06:30:30;;;;;;;14.00;6.70;;;;;;;;;;10211635;28;20721;-68
2022/08/07 06:35:36;;;;;;;11.60;5.97;;;;;;;;;;10219449;28;20107;-68
2022/08/07 06:40:46;;;;;;;10.80;7.07;;;;;;;;;;10215116;28;20045;-68
2022/08/07 06:45:42;;;;;;;10.57;5.50;;;;;;;;;;10214614;28;20050;-68
2022/08/07 06:50:40;;;;;;;11.27;6.03;;;;;;;;;;10208023;28;20073;-67
2022/08/07 06:55:42;;;;;;;10.68;5.70;;;;;;;;;;10210449;28;20053;-68
2022/08/07 07:00:56;;;;;;;9.70;6.15;;;;;;;;;;10218958;28;20164;-68
2022/08/07 07:05:53;;;;;;;8.13;4.53;;;;;;;;;;10213152;28;20045;-68
2022/08/07 07:11:03;;;;;;;6.60;3.33;;;;;;;;;;10205115;28;20138;-67
2022/08/07 07:16:20;;;;;;;8.02;3.72;;;;;;;;;;10219085;28;20489;-67
2022/08/07 07:21:20;;;;;;;6.03;3.17;;;;;;;;;;10220880;28;20050;-68
2022/08/07 07:26:22;;;;;;;6.68;3.30;;;;;;;;;;10213795;28;20068;-67
2022/08/07 07:31:34;;;;;;;7.70;2.90;;;;;;;;;;10219567;28;20084;-69
2022/08/07 07:36:40;;;;;;;5.22;2.83;;;;;;;;;;10242976;28;20128;-68
2022/08/07 07:41:46;;;;;;;6.90;3.75;;;;;;;;;;10216736;28;20046;-67
2022/08/07 07:47:02;;;;;;;8.48;4.03;;;;;;;;;;10223747;28;20457;-67
2022/08/07 07:52:19;;;;;;;6.55;3.42;;;;;;;;;;10223732;28;20440;-68
2022/08/07 07:57:20;;;;;;;6.30;3.53;;;;;;;;;;10214910;28;20116;-68
2022/08/07 08:02:37;;;;;;;5.82;3.28;;;;;;;;;;10214009;28;20067;-68
2022/08/07 08:07:53;;;;;;;7.53;3.75;;;;;;;;;;10213305;28;20148;-67
2022/08/07 08:12:57;;;;;;;7.85;4.22;;;;;;;;;;10216426;28;20072;-67
2022/08/07 08:17:59;;;;;;;7.57;3.72;;;;;;;;;;10227425;28;20041;-68
2022/08/07 08:28:31;;;;;;;5.22;3.60;;;;;;;;;;10216207;28;20037;-67
2022/08/07 08:33:35;;;;;;;5.57;3.63;;;;;;;;;;10208256;28;20074;-67
2022/08/07 08:38:36;;;;;;;7.05;3.13;;;;;;;;;;10211181;28;20037;-68
2022/08/07 08:43:46;;;;;;;5.10;3.25;;;;;;;;;;10218372;28;20061;-67
2022/08/07 08:48:58;;;;;;;5.93;3.33;;;;;;;;;;10209637;28;20307;-67
2022/08/07 08:54:05;;;;;;;5.00;3.40;;;;;;;;;;10215116;28;20507;-67
2022/08/07 08:59:18;;;;;;;5.20;3.63;;;;;;;;;;10214108;28;20686;-67
2022/08/07 09:04:27;;;;;;;6.20;3.40;;;;;;;;;;10215613;28;20056;-68
2022/08/07 09:09:40;;;;;;;5.18;3.35;;;;;;;;;;10218711;28;20171;-68
2022/08/07 09:15:00;;;;;;;6.70;3.70;;;;;;;;;;10224603;28;20045;-68
2022/08/07 09:20:28;;;;;;;5.50;3.63;;;;;;;;;;10211053;28;20123;-67
2022/08/07 09:25:43;;;;;;;5.07;3.55;;;;;;;;;;10209220;28;20092;-68
2022/08/07 09:30:49;;;;;;;5.40;3.92;;;;;;;;;;10217240;28;20091;-68
2022/08/07 09:35:53;;;;;;;8.68;4.47;;;;;;;;;;10218465;28;20065;-68
2022/08/07 09:41:13;;;;;;;7.60;4.50;;;;;;;;;;10213812;28;20041;-67
2022/08/07 09:46:10;;;;;;;5.70;4.30;;;;;;;;;;10213204;28;20649;-68
2022/08/07 09:51:45;;;;;;;7.43;4.65;;;;;;;;;;10219976;28;20132;-67
2022/08/07 09:57:20;;;;;;;5.75;4.18;;;;;;;;;;10207391;28;20053;-68
2022/08/07 10:02:36;;;;;;;6.15;4.50;;;;;;;;;;10210627;28;20463;-68
2022/08/07 10:07:39;;;;;;;6.57;4.22;;;;;;;;;;10213185;28;20051;-68
2022/08/07 10:12:50;;;;;;;4.82;4.10;;;;;;;;;;10214837;28;20079;-68
2022/08/07 10:17:58;;;;;;;5.28;3.65;;;;;;;;;;10218074;28;20050;-68
2022/08/07 10:22:57;;;;;;;6.03;4.72;;;;;;;;;;10211519;28;20076;-68
2022/08/07 10:28:12;;;;;;;7.07;4.32;;;;;;;;;;10220397;28;20508;-68
2022/08/07 10:33:27;;;;;;;6.78;4.15;;;;;;;;;;10216052;28;20557;-68
2022/08/07 10:39:03;;;;;;;5.00;3.78;;;;;;;;;;10205778;28;20128;-68
2022/08/07 10:44:19;;;;;;;4.82;3.75;;;;;;;;;;10221662;28;20096;-68
2022/08/07 10:49:36;;;;;;;5.82;3.80;;;;;;;;;;10216007;28;20045;-68
2022/08/07 10:54:46;;;;;;;;;;;;;;;;;;10216892;28;20060;-68
2022/08/07 11:00:02;;;;;;;6.82;4.20;;;;;;;;;;10210564;28;20304;-68
2022/08/07 11:05:17;;;;;;;5.93;5.00;;;;;;;;;;10227085;28;20103;-68
2022/08/07 11:10:22;;;;;;;6.07;4.30;;;;;;;;;;10218040;28;20822;-68
2022/08/07 11:15:24;;;;;;;5.60;4.13;;;;;;;;;;10223451;28;20132;-68
2022/08/07 11:20:30;;;;;;;8.57;3.97;;;;;;;;;;10220646;28;20046;-67
2022/08/07 11:25:35;;;;;;;5.10;4.20;;;;;;;;;;10216149;28;20077;-68
2022/08/07 11:30:57;;;;;;;5.40;4.82;;;;;;;;;;10217870;28;20046;-68
2022/08/07 11:36:11;;;;;;;6.18;4.75;;;;;;;;;;10221460;28;20065;-67
2022/08/07 11:41:13;;;;;;;5.68;4.32;;;;;;;;;;10220489;28;20067;-68
2022/08/07 11:46:24;;;;;;;6.13;4.50;;;;;;;;;;10223474;28;20072;-67
2022/08/07 11:51:23;;;;;;;5.22;4.22;;;;;;;;;;10218555;28;20046;-67
2022/08/07 11:56:39;;;;;;;5.10;4.60;;;;;;;;;;10216801;28;20053;-67
2022/08/07 12:01:43;;;;;;;5.65;4.40;;;;;;;;;;10215684;28;20100;-67
2022/08/07 12:07:00;;;;;;;4.95;4.10;;;;;;;;;;10225632;28;20490;-67
2022/08/07 12:12:12;;;;;;;5.60;4.65;;;;;;;;;;10215706;28;20580;-67
2022/08/07 12:17:15;;;;;;;6.20;4.30;;;;;;;;;;10228500;28;20137;-68
2022/08/07 12:22:15;;;;;;;4.40;3.88;;;;;;;;;;10206500;28;20129;-68
2022/08/07 12:27:36;;;;;;;5.05;3.90;;;;;;;;;;10215153;28;20038;-67
2022/08/07 12:33:05;;;;;;;6.03;4.40;;;;;;;;;;10221296;28;20553;-67
2022/08/07 12:38:19;;;;;;;5.82;3.65;;;;;;;;;;10215928;28;20046;-67
2022/08/07 12:43:36;;;;;;;5.40;4.10;;;;;;;;;;10216700;28;20148;-68
2022/08/07 12:49:03;;;;;;;6.78;4.38;;;;;;;;;;10228267;28;20416;-67
2022/08/07 12:54:24;;;;;;;5.50;4.28;;;;;;;;;;10208665;28;20046;-67
2022/08/07 12:59:34;;;;;;;7.13;4.68;;;;;;;;;;10221700;28;20038;-67
2022/08/07 13:05:15;;;;;;;6.13;4.00;;;;;;;;;;10215282;28;20683;-67
2022/08/07 13:10:50;;;;;;;6.60;4.53;;;;;;;;;;10214047;28;20428;-68
2022/08/07 13:16:06;;;;;;;5.30;4.43;;;;;;;;;;10225439;28;20045;-67
2022/08/07 13:21:08;;;;;;;5.13;4.30;;;;;;;;;;10208517;28;20390;-67
2022/08/07 13:26:27;;;;;;;5.70;4.57;;;;;;;;;;10202209;28;20046;-67
2022/08/07 13:31:34;;;;;;;7.40;4.90;;;;;;;;;;10217256;28;20744;-67
2022/08/07 13:36:57;;;;;;;5.50;4.53;;;;;;;;;;10212184;28;20716;-67
2022/08/07 13:41:55;;;;;;;4.80;4.28;;;;;;;;;;10217367;28;20800;-67
2022/08/07 13:46:55;;;;;;;5.90;4.80;;;;;;;;;;10215824;28;20071;-68
2022/08/07 13:51:52;;;;;;;8.00;4.60;;;;;;;;;;10219160;28;20103;-68
2022/08/07 13:57:12;;;;;;;5.25;4.13;;;;;;;;;;10204583;28;20045;-68
2022/08/07 14:02:22;;;;;;;4.80;4.13;;;;;;;;;;10217318;28;20049;-68
2022/08/07 14:07:40;;;;;;;6.85;4.50;;;;;;;;;;10216765;28;20132;-68
2022/08/07 14:12:58;;;;;;;5.15;4.47;;;;;;;;;;10211824;28;20049;-68
2022/08/07 14:17:57;;;;;;;7.10;4.65;;;;;;;;;;10223902;28;20141;-68
2022/08/07 14:23:16;;;;;;;7.20;5.30;;;;;;;;;;10220010;28;20041;-68
2022/08/07 14:28:34;;;;;;;7.80;4.72;;;;;;;;;;10228904;28;20513;-68
2022/08/07 14:33:52;;;;;;;6.07;4.35;;;;;;;;;;10219733;28;20049;-68
2022/08/07 14:38:53;;;;;;;;;;;;;;;;;;10224992;28;20483;-68
2022/08/07 14:43:50;;;;;;;5.55;4.50;;;;;;;;;;10222551;28;19921;-68
2022/08/07 14:49:07;;;;;;;6.25;4.80;;;;;;;;;;10224073;28;20042;-68
2022/08/07 14:54:28;;;;;;;7.70;4.50;;;;;;;;;;10215052;28;20568;-68
2022/08/07 14:59:33;;;;;;;5.88;4.50;;;;;;;;;;10220982;28;20037;-68
2022/08/07 15:04:50;;;;;;;7.03;5.20;;;;;;;;;;10220358;28;20042;-68
2022/08/07 15:09:50;;;;;;;4.80;4.10;;;;;;;;;;10224983;28;20128;-68
2022/08/07 15:15:02;;;;;;;5.57;4.50;;;;;;;;;;10230192;28;20041;-68
2022/08/07 15:20:22;;;;;;;6.27;4.70;;;;;;;;;;10229088;28;20137;-68
2022/08/07 15:25:33;;;;;;;5.15;4.47;;;;;;;;;;10212970;28;20069;-68
2022/08/07 15:30:33;;;;;;;4.80;4.28;;;;;;;;;;10222344;28;20037;-68
2022/08/07 15:35:30;;;;;;;5.43;4.28;;;;;;;;;;10215864;28;20095;-67
2022/08/07 15:40:47;;;;;;;4.82;4.03;;;;;;;;;;10214311;28;20041;-67
2022/08/07 15:46:13;;;;;;;7.25;4.10;;;;;;;;;;10217322;28;20567;-68
2022/08/07 15:51:30;;;;;;;6.57;4.50;;;;;;;;;;10215530;28;20042;-68
2022/08/07 15:56:48;;;;;;;7.13;4.38;;;;;;;;;;10217527;28;20425;-68
2022/08/07 16:01:50;;;;;;;7.70;4.30;;;;;;;;;;10219162;28;20049;-68
2022/08/07 16:06:59;;;;;;;7.28;4.65;;;;;;;;;;10212881;28;20049;-68
2022/08/07 16:12:01;;;;;;;4.95;4.10;;;;;;;;;;10208616;28;20156;-68
2022/08/07 16:17:18;;;;;;;5.53;4.40;;;;;;;;;;10212387;28;20045;-68
2022/08/07 16:22:53;;;;;;;6.63;4.57;;;;;;;;;;10204124;28;20038;-68
2022/08/07 16:28:09;;;;;;;9.18;4.65;;;;;;;;;;10204907;28;20046;-69
2022/08/07 16:33:28;;;;;;;7.43;4.95;;;;;;;;;;10202336;28;20050;-68
2022/08/07 16:38:50;;;;;;;7.90;6.10;;;;;;;;;;10215379;28;20085;-68
2022/08/07 16:44:22;;;;;;;6.68;4.70;;;;;;;;;;10205762;28;20444;-68
2022/08/07 16:49:41;;;;;;;5.70;5.10;;;;;;;;;;10194040;28;20512;-68
2022/08/07 16:55:18;;;;;;;5.40;4.90;;;;;;;;;;10206922;28;20802;-69
2022/08/07 17:00:17;;;;;;;5.53;4.93;;;;;;;;;;10202278;28;20124;-68
2022/08/07 17:05:37;;;;;;;5.00;4.35;;;;;;;;;;10194955;28;20042;-68
2022/08/07 17:10:55;;;;;;;5.70;4.53;;;;;;;;;;10196026;28;20048;-68
2022/08/07 17:16:08;;;;;;;5.93;4.30;;;;;;;;;;10209596;28;20065;-67
2022/08/07 17:21:14;;;;;;;9.85;4.40;;;;;;;;;;10189256;28;20042;-68
2022/08/07 17:26:18;;;;;;;5.00;4.50;;;;;;;;;;10193719;28;20501;-68
2022/08/07 17:31:22;;;;;;;4.82;3.45;;;;;;;;;;10202115;28;20460;-68
2022/08/07 17:36:26;;;;;;;4.90;4.30;;;;;;;;;;10202280;28;20061;-67
2022/08/07 17:41:46;;;;;;;5.32;4.35;;;;;;;;;;10192111;28;20066;-69
2022/08/07 17:47:03;;;;;;;5.30;4.47;;;;;;;;;;10207895;28;20054;-68
2022/08/07 17:52:18;;;;;;;4.22;3.50;;;;;;;;;;10201658;28;20656;-68
2022/08/07 17:57:15;;;;;;;4.85;4.35;;;;;;;;;;10197320;28;20073;-69
2022/08/07 18:02:20;;;;;;;7.13;4.10;;;;;;;;;;10201660;28;20046;-69
2022/08/07 18:07:31;;;;;;;6.85;4.00;;;;;;;;;;10199347;28;20781;-69
2022/08/07 18:12:32;;;;;;;6.63;4.30;;;;;;;;;;10203098;28;20088;-69
2022/08/07 18:17:29;;;;;;;6.10;4.82;;;;;;;;;;10210665;28;20057;-69
2022/08/07 18:22:52;;;;;;;6.47;3.88;;;;;;;;;;10194768;28;20042;-68
2022/08/07 18:27:54;;;;;;;11.07;4.35;;;;;;;;;;10216101;28;20080;-68
2022/08/07 18:33:08;;;;;;;5.10;3.97;;;;;;;;;;10201795;28;20080;-68
2022/08/07 18:38:16;;;;;;;5.80;4.10;;;;;;;;;;10207377;28;20498;-68
2022/08/07 18:43:33;;;;;;;9.27;5.07;;;;;;;;;;10209391;28;20124;-69
2022/08/07 18:48:41;;;;;;;8.48;5.00;;;;;;;;;;10214059;28;20055;-68
2022/08/07 18:54:01;;;;;;;7.65;4.72;;;;;;;;;;10209209;28;20080;-69
2022/08/07 18:59:20;;;;;;;8.98;5.38;;;;;;;;;;10209882;28;20669;-69
2022/08/07 19:04:54;;;;;;;8.73;4.40;;;;;;;;;;10225094;28;20477;-69
2022/08/07 19:10:23;;;;;;;5.53;3.90;;;;;;;;;;10223269;28;20053;-68
2022/08/07 19:15:37;;;;;;;5.00;3.90;;;;;;;;;;10226825;28;20107;-69
2022/08/07 19:21:10;;;;;;;8.75;3.92;;;;;;;;;;10224416;28;20045;-69
2022/08/07 19:26:31;;;;;;;5.72;3.72;;;;;;;;;;10207132;28;20045;-69
2022/08/07 19:31:50;;;;;;;6.85;4.07;;;;;;;;;;10214461;28;20122;-68
2022/08/07 19:37:08;;;;;;;7.13;4.20;;;;;;;;;;10215904;28;20038;-68
2022/08/07 19:42:15;;;;;;;5.15;4.03;;;;;;;;;;10198698;28;20557;-69
2022/08/07 19:47:21;;;;;;;6.60;4.10;;;;;;;;;;10220605;28;20057;-68
2022/08/07 19:52:24;;;;;;;7.40;4.00;;;;;;;;;;10227268;28;20523;-69
2022/08/07 19:57:27;;;;;;;6.60;4.05;;;;;;;;;;10213107;28;20045;-67
2022/08/07 20:02:49;;;;;;;6.28;4.45;;;;;;;;;;10204158;28;20161;-67
2022/08/07 20:07:48;;;;;;;5.43;4.15;;;;;;;;;;10209605;28;20041;-66
2022/08/07 20:12:49;;;;;;;6.28;3.83;;;;;;;;;;10208065;28;20188;-67
2022/08/07 20:17:47;;;;;;;5.78;3.47;;;;;;;;;;10205312;28;20092;-67
2022/08/07 20:23:00;;;;;;;5.43;3.42;;;;;;;;;;10200385;28;20140;-66
2022/08/07 20:28:17;;;;;;;5.22;3.05;;;;;;;;;;10204607;28;20046;-66
2022/08/07 20:33:16;;;;;;;5.57;3.50;;;;;;;;;;10203250;28;20042;-66
2022/08/07 20:38:32;;;;;;;7.28;3.45;;;;;;;;;;10210964;28;20144;-67
2022/08/07 20:43:31;;;;;;;7.32;3.25;;;;;;;;;;10203826;28;20069;-67
2022/08/07 20:48:28;;;;;;;6.35;3.53;;;;;;;;;;10223791;28;20046;-67
2022/08/07 20:53:36;;;;;;;5.93;2.92;;;;;;;;;;10214668;28;20061;-67
2022/08/07 20:58:56;;;;;;;8.70;4.22;;;;;;;;;;10206168;28;20121;-67
2022/08/07 21:03:55;;;;;;;6.78;3.72;;;;;;;;;;10206586;28;20053;-66
2022/08/07 21:09:14;;;;;;;5.45;3.42;;;;;;;;;;10221649;28;20706;-68
2022/08/07 21:14:16;;;;;;;6.32;3.50;;;;;;;;;;10219861;28;20437;-67
2022/08/07 21:19:29;;;;;;;6.32;3.63;;;;;;;;;;10227990;28;20558;-67
2022/08/07 21:25:04;;;;;;;7.35;3.63;;;;;;;;;;10212445;28;20060;-67
2022/08/07 21:30:10;;;;;;;7.17;4.23;;;;;;;;;;10219493;28;20541;-67
2022/08/07 21:35:20;;;;;;;6.03;3.80;;;;;;;;;;10219927;28;20057;-68
2022/08/07 21:40:44;;;;;;;7.82;3.70;;;;;;;;;;10216753;28;20560;-66
2022/08/07 21:45:59;;;;;;;6.97;4.25;;;;;;;;;;10218280;28;20057;-67
2022/08/07 21:51:34;;;;;;;7.85;4.38;;;;;;;;;;10211710;28;20142;-67
2022/08/07 21:57:04;;;;;;;11.45;4.90;;;;;;;;;;10220100;28;20100;-66
2022/08/07 22:02:14;;;;;;;7.68;4.93;;;;;;;;;;10218609;28;20496;-68
2022/08/07 22:07:15;;;;;;;8.27;3.92;;;;;;;;;;10214304;28;20100;-68
2022/08/07 22:12:12;;;;;;;7.72;3.85;;;;;;;;;;10219550;28;20057;-67
2022/08/07 22:17:15;;;;;;;6.63;3.92;;;;;;;;;;10223925;28;20046;-67
2022/08/07 22:22:21;;;;;;;8.10;4.78;;;;;;;;;;10220917;28;20452;-68
2022/08/07 22:27:26;;;;;;;12.65;6.20;;;;;;;;;;10217376;28;20049;-66
2022/08/07 22:32:45;;;;;;;9.93;4.25;;;;;;;;;;10221034;28;20049;-67
2022/08/07 22:37:51;;;;;;;9.63;4.45;;;;;;;;;;10226929;28;20131;-67
2022/08/07 22:43:02;;;;;;;6.13;4.20;;;;;;;;;;10231186;28;20041;-67
2022/08/07 22:48:08;;;;;;;7.03;4.45;;;;;;;;;;10218804;28;20074;-65
2022/08/07 22:53:31;;;;;;;7.97;4.47;;;;;;;;;;10219351;28;20041;-66
2022/08/07 22:58:56;;;;;;;9.23;4.47;;;;;;;;;;10221745;28;20437;-66
2022/08/07 23:04:14;;;;;;;7.88;4.45;;;;;;;;;;10220455;28;20073;-66
2022/08/07 23:09:14;;;;;;;7.63;4.50;;;;;;;;;;10221095;28;20133;-67
2022/08/07 23:14:35;;;;;;;8.45;5.63;;;;;;;;;;10222576;28;20046;-67
2022/08/07 23:25:12;;;;;;;6.68;4.03;;;;;;;;;;10219304;28;20046;-66
2022/08/07 23:30:12;;;;;;;10.65;4.50;;;;;;;;;;10221161;28;20768;-66
2022/08/07 23:35:34;;;;;;;7.75;4.22;;;;;;;;;;10226732;28;20087;-65
2022/08/07 23:40:44;;;;;;;8.38;4.22;;;;;;;;;;10225141;28;20128;-65
2022/08/07 23:45:45;;;;;;;7.88;4.40;;;;;;;;;;10220485;28;20088;-66
2022/08/07 23:51:07;;;;;;;7.22;4.35;;;;;;;;;;10231323;28;20049;-66
2022/08/07 23:56:35;;;;;;;7.35;4.40;;;;;;;;;;10218458;28;20606;-65
